map of KCWF home
KCWF - Airport
Location
City:  Lake Charles, Louisiana, United States
Name:Chennault International Airport
ICAO:KCWF
FAA LID:CWF

Details
Type:Airport (Part 139 Class IV)
Use:Public/Civil
Latitude:3012'38"N (30.210583)
Longitude:9308'35"W (-93.143193)
Datum:WGS 1984
Elevation:16 ft (5 m)
Variation:1.00E (WMM2015v2 magnetic declination)
-0.10 annual change
Runways:1
Longest:10702 × 200 ft (3262 × 61 m), paved

Time
Time Zone:UTC-6 (DST-5)
Local Time:

Weather
METAR:KCWF 041350Z 07003KT 1/4SM FG VV001 17/17 A2996

Related Locations
Nearby:
Farthest:CCK: 11038 mi / 17764 km
West Island (Pulau Panjang) [Cocos (Keeling) Islands], CC

Find:

   beyond  
but within

Other Information
Maps:
NOTAMs:
Links:
Sources:

  
  • flag of United States
  • flag of Louisiana
  

Airport Diagram

Airport diagram for KCWF

Airport diagram PDF from FAA

Sectional Chart

Flight Planning
at skyvector.com

Satellite Image

Google Maps Satellite view

 

Copyright © 2004-2019 Karl L. Swartz. All rights reserved.
The Great Circle Mapper name and logo are trademarks of the Great Circle Mapper.
All other trademarks mentioned herein belong to their respective owners.
Please see credits for attibutions and further copyright information.

  Follow gcmap on Facebook Follow gcmap on Twitter GCmap on LinkedIn

hCard Microformat

Geo Microformat